Time;durP1;ratioP1;P1;durP2;ratioP2;P2;SDS_P1;SDS_P2;PMS_P1;PMS_P2;Temp;Humidity;BMP_temperature;BMP_pressure;BME280_temperature;BME280_humidity;BME280_pressure;Samples;Min_cycle;Max_cycle;Signal;HPM_P1;HPM_P2
2024/01/13 00:02:03;;;;;;;59.43;32.47;;;1.70;99.90;;;;;;5093199;28;20185;-74
2024/01/13 00:04:29;;;;;;;75.30;36.03;;;1.70;99.90;;;;;;5093463;28;20167;-74
2024/01/13 00:06:54;;;;;;;61.10;34.57;;;1.70;99.90;;;;;;5091698;28;20206;-74
2024/01/13 00:09:20;;;;;;;73.03;36.07;;;1.70;99.90;;;;;;5092935;28;20166;-74
2024/01/13 00:11:45;;;;;;;62.60;35.30;;;1.70;99.90;;;;;;5093469;28;20170;-74
2024/01/13 00:14:11;;;;;;;65.27;35.43;;;1.70;99.90;;;;;;5093202;28;20185;-74
2024/01/13 00:16:36;;;;;;;63.77;34.47;;;1.80;99.90;;;;;;5092976;28;20194;-74
2024/01/13 00:19:02;;;;;;;63.07;34.27;;;1.70;99.90;;;;;;5092964;28;20235;-73
2024/01/13 00:21:27;;;;;;;64.10;35.50;;;1.70;99.90;;;;;;5093351;28;20231;-73
2024/01/13 00:23:53;;;;;;;64.27;35.33;;;1.80;99.90;;;;;;5091776;28;20551;-74
2024/01/13 00:26:18;;;;;;;62.40;34.20;;;1.70;99.90;;;;;;5092945;28;20228;-73
2024/01/13 00:28:44;;;;;;;62.43;33.77;;;1.70;99.90;;;;;;5092952;28;20177;-73
2024/01/13 00:31:10;;;;;;;61.60;34.60;;;1.70;99.90;;;;;;5093306;28;20677;-73
2024/01/13 00:33:36;;;;;;;57.23;32.87;;;1.70;99.90;;;;;;5093368;28;20204;-72
2024/01/13 00:36:02;;;;;;;62.43;34.60;;;1.70;99.90;;;;;;5093051;28;20166;-73
2024/01/13 00:38:27;;;;;;;59.30;33.53;;;1.70;99.90;;;;;;5092876;28;20170;-73
2024/01/13 00:40:53;;;;;;;61.93;34.20;;;1.70;99.90;;;;;;5091463;28;20178;-72
2024/01/13 00:43:18;;;;;;;67.60;36.30;;;1.70;99.90;;;;;;5092721;28;20184;-73
2024/01/13 00:45:44;;;;;;;64.03;34.43;;;1.70;99.90;;;;;;5092709;28;20215;-74
2024/01/13 00:48:09;;;;;;;64.20;34.43;;;1.70;99.90;;;;;;5092597;28;20247;-73
2024/01/13 00:50:35;;;;;;;60.20;34.57;;;1.70;99.90;;;;;;5092828;28;20670;-74
2024/01/13 00:53:01;;;;;;;61.73;33.33;;;1.70;99.90;;;;;;5091284;28;20171;-74
2024/01/13 00:55:26;;;;;;;63.70;35.03;;;1.70;99.90;;;;;;5092601;28;20193;-73
2024/01/13 00:57:52;;;;;;;61.93;34.57;;;1.70;99.90;;;;;;5091581;28;20246;-73
2024/01/13 01:00:17;;;;;;;60.70;34.63;;;1.70;99.90;;;;;;5092512;28;20253;-73
2024/01/13 01:02:43;;;;;;;58.07;34.93;;;1.70;99.90;;;;;;5092623;28;20219;-73
2024/01/13 01:05:08;;;;;;;62.27;32.70;;;1.70;99.90;;;;;;5092313;28;20491;-73
2024/01/13 01:07:34;;;;;;;62.00;33.10;;;1.70;99.90;;;;;;5092178;28;20198;-72
2024/01/13 01:09:59;;;;;;;63.50;32.40;;;1.70;99.90;;;;;;5090735;28;20201;-74
2024/01/13 01:12:25;;;;;;;53.93;31.20;;;1.70;99.90;;;;;;5092413;28;20173;-74
2024/01/13 01:14:50;;;;;;;57.30;31.87;;;1.70;99.90;;;;;;5091127;28;20177;-72
2024/01/13 01:17:15;;;;;;;69.73;34.30;;;1.70;99.90;;;;;;5092176;28;20681;-74
2024/01/13 01:19:41;;;;;;;63.50;32.67;;;1.70;99.90;;;;;;5092259;28;20253;-73
2024/01/13 01:22:07;;;;;;;61.20;33.63;;;1.70;99.90;;;;;;5090985;28;20265;-74
2024/01/13 01:24:32;;;;;;;68.40;34.13;;;1.70;99.90;;;;;;5092384;28;20309;-73
2024/01/13 01:26:58;;;;;;;68.47;34.10;;;1.70;99.90;;;;;;5091946;28;20732;-73
2024/01/13 01:29:23;;;;;;;58.33;32.93;;;1.70;99.90;;;;;;5091885;28;20174;-74
2024/01/13 01:31:49;;;;;;;61.53;33.00;;;1.70;99.90;;;;;;5092021;28;20178;-74
2024/01/13 01:34:14;;;;;;;57.43;31.10;;;1.70;99.90;;;;;;5092294;28;20162;-74
2024/01/13 01:36:40;;;;;;;57.10;30.70;;;1.70;99.90;;;;;;5090691;28;20750;-74
2024/01/13 01:39:05;;;;;;;51.73;31.03;;;1.70;99.90;;;;;;5092052;28;20225;-74
2024/01/13 01:41:31;;;;;;;58.43;30.30;;;1.70;99.90;;;;;;5092190;28;20544;-74
2024/01/13 01:43:57;;;;;;;49.97;31.70;;;1.70;99.90;;;;;;5090558;28;20257;-74
2024/01/13 01:46:23;;;;;;;55.07;30.00;;;1.70;99.90;;;;;;5090495;28;20347;-74
2024/01/13 01:48:56;;;;;;;52.10;31.53;;;1.70;99.90;;;;;;5090524;28;20312;-74
2024/01/13 01:51:22;;;;;;;57.40;31.63;;;1.60;99.90;;;;;;5090501;28;20306;-74
2024/01/13 01:53:49;;;;;;;61.70;33.37;;;1.60;99.90;;;;;;5092001;28;20174;-74
2024/01/13 01:56:18;;;;;;;70.80;33.23;;;1.60;99.90;;;;;;5091816;28;20216;-73
2024/01/13 01:58:46;;;;;;;60.97;33.03;;;1.70;99.90;;;;;;5091690;28;20177;-74
2024/01/13 02:01:13;;;;;;;59.30;33.53;;;1.70;99.90;;;;;;5090314;28;20269;-74
2024/01/13 02:03:39;;;;;;;59.00;32.23;;;1.70;99.90;;;;;;5091695;28;20231;-73
2024/01/13 02:06:06;;;;;;;66.20;33.50;;;1.70;99.90;;;;;;5091628;28;20163;-74
2024/01/13 02:08:32;;;;;;;55.80;31.83;;;1.70;99.90;;;;;;5091944;28;20642;-73
2024/01/13 02:10:58;;;;;;;58.40;31.37;;;1.70;99.90;;;;;;5091758;28;20665;-73
2024/01/13 02:13:23;;;;;;;59.33;30.17;;;1.70;99.90;;;;;;5091620;28;20245;-74
2024/01/13 02:15:49;;;;;;;57.47;29.87;;;1.70;99.90;;;;;;5091650;28;20243;-72
2024/01/13 02:18:14;;;;;;;51.60;29.87;;;1.70;99.90;;;;;;5091451;28;20554;-72
2024/01/13 02:20:40;;;;;;;56.33;31.80;;;1.70;99.90;;;;;;5092700;28;20166;-73
2024/01/13 02:23:05;;;;;;;53.30;28.63;;;1.70;99.90;;;;;;5093822;28;20204;-73
2024/01/13 02:25:31;;;;;;;55.30;31.03;;;1.70;99.90;;;;;;5095069;28;20553;-73
2024/01/13 02:27:56;;;;;;;50.80;30.73;;;1.70;99.90;;;;;;5094930;28;20205;-73
2024/01/13 02:30:22;;;;;;;56.73;30.40;;;1.70;99.90;;;;;;5094857;28;20206;-74
2024/01/13 02:32:47;;;;;;;52.87;29.80;;;1.70;99.90;;;;;;5094892;28;20267;-73
2024/01/13 02:35:13;;;;;;;55.93;30.73;;;1.70;99.90;;;;;;5094831;28;20742;-73
2024/01/13 02:37:39;;;;;;;51.70;31.27;;;1.70;99.90;;;;;;5093551;28;20196;-73
2024/01/13 02:40:09;;;;;;;52.53;30.47;;;1.70;99.90;;;;;;5094790;28;20162;-73
2024/01/13 02:42:35;;;;;;;58.93;30.83;;;1.80;99.90;;;;;;5094708;28;20200;-74
2024/01/13 02:45:00;;;;;;;58.17;32.27;;;1.70;99.90;;;;;;5094638;28;20178;-73
2024/01/13 02:47:51;;;;;;;63.87;32.43;;;1.70;99.90;;;;;;5094586;28;20632;-74
2024/01/13 02:50:16;;;;;;;64.70;32.37;;;1.80;99.90;;;;;;5093249;28;20268;-74
2024/01/13 02:52:44;;;;;;;70.47;34.77;;;1.80;99.90;;;;;;5094608;28;20534;-73
2024/01/13 02:55:10;;;;;;;62.03;34.37;;;1.80;99.90;;;;;;5094704;28;20583;-73
2024/01/13 02:57:35;;;;;;;56.70;33.13;;;1.80;99.90;;;;;;5093095;28;20197;-73
2024/01/13 03:00:01;;;;;;;60.77;33.90;;;1.80;99.90;;;;;;5092984;28;20660;-73
2024/01/13 03:02:26;;;;;;;70.03;34.47;;;1.80;99.90;;;;;;5094358;28;20250;-73
2024/01/13 03:04:52;;;;;;;61.87;33.23;;;1.80;99.90;;;;;;5094276;28;20170;-74
2024/01/13 03:07:17;;;;;;;64.73;34.57;;;1.80;99.90;;;;;;5094171;28;20194;-72
2024/01/13 03:09:43;;;;;;;62.23;33.17;;;1.80;99.90;;;;;;5094112;28;20323;-73
2024/01/13 03:12:08;;;;;;;61.50;32.87;;;1.80;99.90;;;;;;5092779;28;20171;-75
2024/01/13 03:14:34;;;;;;;61.73;34.17;;;1.80;99.90;;;;;;5094092;28;20261;-73
2024/01/13 03:16:59;;;;;;;60.63;32.23;;;1.80;99.90;;;;;;5092747;28;20527;-73
2024/01/13 03:19:25;;;;;;;59.60;34.30;;;1.80;99.90;;;;;;5094055;28;20170;-71
2024/01/13 03:21:50;;;;;;;67.13;35.60;;;1.80;99.90;;;;;;5092559;28;20170;-73
2024/01/13 03:24:16;;;;;;;58.00;33.47;;;1.80;99.90;;;;;;5092637;28;20185;-73
2024/01/13 03:26:42;;;;;;;56.67;32.70;;;1.80;99.90;;;;;;5094020;28;20680;-74
2024/01/13 03:29:07;;;;;;;57.17;33.37;;;1.80;99.90;;;;;;5093838;28;20174;-74
2024/01/13 03:31:32;;;;;;;59.70;32.20;;;1.80;99.90;;;;;;5093040;28;20197;-73
2024/01/13 03:33:58;;;;;;;62.73;32.73;;;1.80;99.90;;;;;;5093835;28;20294;-72
2024/01/13 03:36:24;;;;;;;58.13;32.17;;;1.80;99.90;;;;;;5092334;28;20209;-74
2024/01/13 03:38:49;;;;;;;58.60;30.57;;;1.80;99.90;;;;;;5093703;28;20268;-74
2024/01/13 03:41:18;;;;;;;60.23;32.93;;;1.80;99.90;;;;;;5093723;28;20638;-73
2024/01/13 03:43:44;;;;;;;63.73;33.17;;;1.80;99.90;;;;;;5093821;28;20261;-73
2024/01/13 03:46:10;;;;;;;57.83;32.40;;;1.80;99.90;;;;;;5093666;28;20255;-74
2024/01/13 03:48:36;;;;;;;57.83;29.60;;;1.80;99.90;;;;;;5093521;28;20183;-74
2024/01/13 03:51:01;;;;;;;59.63;31.80;;;1.80;99.90;;;;;;5093591;28;20210;-73
2024/01/13 03:53:28;;;;;;;58.10;31.37;;;1.80;99.90;;;;;;5093547;28;20175;-73
2024/01/13 03:55:54;;;;;;;57.93;30.37;;;1.80;99.90;;;;;;5094001;28;20169;-73
2024/01/13 03:58:19;;;;;;;52.13;30.47;;;1.80;99.90;;;;;;5091801;28;20191;-73
2024/01/13 04:00:45;;;;;;;55.20;29.87;;;1.80;99.90;;;;;;5091945;28;20201;-73
2024/01/13 04:03:11;;;;;;;51.77;28.93;;;1.80;99.90;;;;;;5091845;28;20202;-74
2024/01/13 04:05:36;;;;;;;56.67;30.00;;;1.80;99.90;;;;;;5093113;28;20633;-74
2024/01/13 04:08:03;;;;;;;51.40;28.17;;;1.80;99.90;;;;;;5093066;28;20198;-73
2024/01/13 04:10:29;;;;;;;53.27;29.50;;;1.90;99.90;;;;;;5091670;28;20287;-74
2024/01/13 04:12:56;;;;;;;50.83;30.03;;;1.80;99.90;;;;;;5091779;28;20350;-74
2024/01/13 04:15:21;;;;;;;54.70;29.37;;;1.90;99.90;;;;;;5093205;28;20657;-74
2024/01/13 04:17:47;;;;;;;50.67;28.30;;;1.90;99.90;;;;;;5092883;28;20193;-74
2024/01/13 04:20:12;;;;;;;49.17;27.23;;;1.90;99.90;;;;;;5092875;28;20174;-73
2024/01/13 04:22:38;;;;;;;54.87;27.00;;;1.90;99.90;;;;;;5091338;28;20375;-74
2024/01/13 04:25:04;;;;;;;43.00;26.33;;;1.90;99.90;;;;;;5093133;28;20184;-73
2024/01/13 04:27:29;;;;;;;51.83;26.50;;;1.90;99.90;;;;;;5091396;28;20281;-74
2024/01/13 04:29:55;;;;;;;53.83;27.57;;;1.80;99.90;;;;;;5092605;28;20548;-74
2024/01/13 04:32:20;;;;;;;45.13;26.20;;;1.90;99.90;;;;;;5091126;28;20544;-74
2024/01/13 04:34:46;;;;;;;51.40;26.57;;;1.90;99.90;;;;;;5092607;28;20220;-74
2024/01/13 04:37:11;;;;;;;44.97;27.20;;;1.90;99.90;;;;;;5091297;28;20193;-74
2024/01/13 04:39:37;;;;;;;50.67;27.90;;;1.90;99.90;;;;;;5092543;28;20174;-74
2024/01/13 04:42:03;;;;;;;48.07;26.43;;;1.90;99.90;;;;;;5091353;28;20231;-74
2024/01/13 04:44:28;;;;;;;46.87;26.40;;;1.90;99.90;;;;;;5090410;28;20232;-73
2024/01/13 04:46:54;;;;;;;46.73;26.17;;;1.90;99.90;;;;;;5092407;28;20196;-74
2024/01/13 04:49:20;;;;;;;49.97;26.63;;;1.90;99.90;;;;;;5092430;28;20166;-74
2024/01/13 04:51:45;;;;;;;51.80;27.33;;;1.90;99.90;;;;;;5091054;28;20255;-74
2024/01/13 04:54:11;;;;;;;40.70;25.53;;;1.90;99.90;;;;;;5092396;28;20261;-74
2024/01/13 04:56:37;;;;;;;47.77;25.60;;;1.90;99.90;;;;;;5092301;28;20217;-74
2024/01/13 04:59:02;;;;;;;48.93;26.17;;;1.90;99.90;;;;;;5091084;28;20235;-74
2024/01/13 05:01:28;;;;;;;43.57;26.50;;;1.90;99.90;;;;;;5092250;28;20331;-74
2024/01/13 05:03:54;;;;;;;46.80;26.13;;;1.90;99.90;;;;;;5090965;28;20185;-73
2024/01/13 05:06:19;;;;;;;45.37;25.37;;;1.90;99.90;;;;;;5090697;28;20224;-73
2024/01/13 05:08:45;;;;;;;46.47;24.80;;;1.90;99.90;;;;;;5090872;28;20184;-74
2024/01/13 05:11:10;;;;;;;44.50;25.43;;;1.90;99.90;;;;;;5092164;28;20198;-74
2024/01/13 05:13:36;;;;;;;42.13;25.63;;;1.90;99.90;;;;;;5090869;28;20220;-74
2024/01/13 05:16:02;;;;;;;49.10;25.73;;;1.90;99.90;;;;;;5090762;28;20174;-74
2024/01/13 05:18:28;;;;;;;47.07;25.93;;;1.90;99.90;;;;;;5092639;28;20463;-73
2024/01/13 05:20:54;;;;;;;43.73;25.33;;;1.90;99.90;;;;;;5092089;28;20196;-74
2024/01/13 05:23:19;;;;;;;40.07;23.63;;;1.90;99.90;;;;;;5090785;28;20211;-74
2024/01/13 05:25:45;;;;;;;44.20;23.63;;;1.90;99.90;;;;;;5092225;28;20178;-73
2024/01/13 05:28:10;;;;;;;45.07;24.57;;;1.90;99.90;;;;;;5091915;28;20670;-73
2024/01/13 05:30:36;;;;;;;38.87;23.40;;;1.90;99.90;;;;;;5091954;28;20193;-73
2024/01/13 05:33:02;;;;;;;45.17;24.00;;;1.90;99.90;;;;;;5091955;28;20197;-73
2024/01/13 05:35:27;;;;;;;42.37;24.10;;;1.90;99.90;;;;;;5091920;28;20171;-74
2024/01/13 05:37:53;;;;;;;41.80;23.80;;;2.00;99.90;;;;;;5091933;28;20194;-74
2024/01/13 05:40:21;;;;;;;42.23;24.07;;;2.00;99.90;;;;;;5092021;28;20174;-74
2024/01/13 05:42:47;;;;;;;39.90;22.10;;;2.00;99.90;;;;;;5091859;28;20192;-74
2024/01/13 05:45:12;;;;;;;38.83;23.33;;;1.90;99.90;;;;;;5090504;28;20178;-72
2024/01/13 05:47:38;;;;;;;44.57;23.53;;;2.00;99.90;;;;;;5091859;28;20244;-73
2024/01/13 05:50:04;;;;;;;35.90;23.07;;;2.00;99.90;;;;;;5090447;28;20202;-73
2024/01/13 05:52:30;;;;;;;34.83;22.23;;;2.00;99.90;;;;;;5090571;28;20274;-73
2024/01/13 05:54:56;;;;;;;39.27;23.33;;;2.00;99.90;;;;;;5093580;28;20747;-74
2024/01/13 05:57:22;;;;;;;37.10;21.60;;;2.00;99.90;;;;;;5095691;28;20376;-74
2024/01/13 05:59:47;;;;;;;31.33;20.67;;;2.00;99.90;;;;;;5094334;28;20265;-73
2024/01/13 06:02:13;;;;;;;37.97;22.50;;;2.00;99.90;;;;;;5095549;28;20178;-73
2024/01/13 06:04:40;;;;;;;37.87;20.80;;;2.00;99.90;;;;;;5094169;28;20174;-74
2024/01/13 06:07:06;;;;;;;32.33;21.17;;;2.00;99.90;;;;;;5095527;28;20186;-74
2024/01/13 06:09:32;;;;;;;35.10;20.77;;;2.00;99.90;;;;;;5095365;28;20181;-74
2024/01/13 06:11:57;;;;;;;34.37;20.27;;;2.00;99.90;;;;;;5095332;28;20218;-72
2024/01/13 06:14:24;;;;;;;36.00;20.63;;;2.00;99.90;;;;;;5095357;28;20526;-74
2024/01/13 06:16:50;;;;;;;32.83;20.47;;;2.00;99.90;;;;;;5095586;28;20190;-74
2024/01/13 06:19:15;;;;;;;35.37;20.30;;;2.00;99.90;;;;;;5095195;28;20243;-73
2024/01/13 06:21:42;;;;;;;34.97;21.37;;;2.10;99.90;;;;;;5095457;28;20268;-74
2024/01/13 06:24:08;;;;;;;32.73;20.97;;;2.00;99.90;;;;;;5095048;28;20288;-73
2024/01/13 06:26:40;;;;;;;33.37;21.33;;;2.00;99.90;;;;;;5095016;28;20198;-74
2024/01/13 06:29:09;;;;;;;31.00;19.13;;;2.00;99.90;;;;;;5095096;28;20161;-74
2024/01/13 06:31:35;;;;;;;29.77;19.87;;;2.00;99.90;;;;;;5094921;28;20224;-73
2024/01/13 06:34:01;;;;;;;28.23;19.37;;;2.10;99.90;;;;;;5094792;28;20656;-74
2024/01/13 06:36:27;;;;;;;29.50;18.17;;;2.20;99.90;;;;;;5094834;28;20611;-74
2024/01/13 06:38:53;;;;;;;28.00;18.87;;;2.00;99.90;;;;;;5093520;28;20301;-73
2024/01/13 06:41:19;;;;;;;26.33;18.97;;;2.10;99.90;;;;;;5094894;28;20278;-73
2024/01/13 06:43:44;;;;;;;28.93;19.23;;;2.10;99.90;;;;;;5093450;28;20190;-74
2024/01/13 06:46:11;;;;;;;31.30;18.80;;;2.10;99.90;;;;;;5095030;28;20170;-74
2024/01/13 06:48:37;;;;;;;28.80;19.60;;;2.10;99.90;;;;;;5093284;28;20695;-74
2024/01/13 06:51:02;;;;;;;29.83;19.67;;;2.10;99.90;;;;;;5093976;28;20202;-74
2024/01/13 06:53:28;;;;;;;32.20;19.03;;;2.10;99.90;;;;;;5094788;28;20614;-74
2024/01/13 06:55:53;;;;;;;27.17;17.93;;;2.20;99.90;;;;;;5093189;28;20166;-74
2024/01/13 06:58:19;;;;;;;28.87;19.47;;;2.20;99.90;;;;;;5094494;28;20553;-73
2024/01/13 07:00:44;;;;;;;29.20;19.00;;;2.20;99.90;;;;;;5094314;28;20250;-73
2024/01/13 07:03:10;;;;;;;28.80;19.70;;;2.20;99.90;;;;;;5094528;28;20723;-74
2024/01/13 07:05:35;;;;;;;26.37;17.73;;;2.20;99.90;;;;;;5093994;28;20167;-73
2024/01/13 07:08:03;;;;;;;26.77;18.43;;;2.20;99.90;;;;;;5092443;28;20379;-73
2024/01/13 07:10:29;;;;;;;30.70;18.70;;;2.30;99.90;;;;;;5094253;28;20190;-73
2024/01/13 07:12:54;;;;;;;26.57;18.10;;;2.30;99.90;;;;;;5092915;28;20220;-74
2024/01/13 07:15:20;;;;;;;25.67;17.70;;;2.30;99.90;;;;;;5092907;28;20172;-72
2024/01/13 07:17:45;;;;;;;25.73;17.27;;;2.30;99.90;;;;;;5094072;28;20665;-73
2024/01/13 07:20:11;;;;;;;28.10;18.13;;;2.30;99.90;;;;;;5094119;28;20198;-73
2024/01/13 07:22:37;;;;;;;27.43;18.17;;;2.40;99.90;;;;;;5093946;28;20171;-74
2024/01/13 07:25:03;;;;;;;24.70;17.07;;;2.40;99.90;;;;;;5094044;28;20376;-74
2024/01/13 07:27:29;;;;;;;28.13;18.97;;;2.40;99.90;;;;;;5092509;28;20195;-73
2024/01/13 07:29:55;;;;;;;23.23;16.73;;;2.40;99.90;;;;;;5094030;28;20562;-74
2024/01/13 07:32:21;;;;;;;25.27;17.20;;;2.40;99.90;;;;;;5094055;28;20178;-74
2024/01/13 07:34:46;;;;;;;26.07;17.37;;;2.40;99.90;;;;;;5094054;28;20192;-74
2024/01/13 07:37:12;;;;;;;24.87;16.50;;;2.40;99.90;;;;;;5093668;28;20191;-74
2024/01/13 07:39:37;;;;;;;25.43;17.23;;;2.40;99.90;;;;;;5093626;28;20243;-74
2024/01/13 07:42:03;;;;;;;26.67;17.20;;;2.40;99.90;;;;;;5092320;28;20178;-75
2024/01/13 07:44:29;;;;;;;27.53;17.53;;;2.40;99.90;;;;;;5092262;28;20170;-75
2024/01/13 07:47:00;;;;;;;29.70;18.40;;;2.40;99.90;;;;;;5091777;28;20209;-76
2024/01/13 07:49:29;;;;;;;25.60;18.17;;;2.40;99.90;;;;;;5091449;28;20151;-75
2024/01/13 07:51:56;;;;;;;27.13;18.23;;;2.40;99.90;;;;;;5090481;28;20236;-75
2024/01/13 07:54:22;;;;;;;26.70;18.70;;;2.40;99.90;;;;;;5091103;28;20219;-75
2024/01/13 07:56:49;;;;;;;28.43;17.93;;;2.40;99.90;;;;;;5092281;28;20198;-76
2024/01/13 07:59:16;;;;;;;28.80;18.27;;;2.40;99.90;;;;;;5090925;28;20179;-76
2024/01/13 08:01:41;;;;;;;27.60;18.37;;;2.40;99.90;;;;;;5090936;28;20182;-76
2024/01/13 08:04:07;;;;;;;24.30;18.90;;;2.40;99.90;;;;;;5091665;28;20282;-75
2024/01/13 08:06:32;;;;;;;28.80;19.83;;;2.40;99.90;;;;;;5091807;28;20636;-74
2024/01/13 08:08:58;;;;;;;31.23;20.20;;;2.40;99.90;;;;;;5093562;28;20174;-75
2024/01/13 08:11:24;;;;;;;31.87;20.87;;;2.40;99.90;;;;;;5093253;28;20202;-75
2024/01/13 08:13:49;;;;;;;30.33;21.13;;;2.40;99.90;;;;;;5093001;28;20187;-75
2024/01/13 08:16:15;;;;;;;35.67;22.10;;;2.40;99.90;;;;;;5092898;28;20181;-75
2024/01/13 08:18:41;;;;;;;32.93;21.13;;;2.40;99.90;;;;;;5092835;28;20208;-75
2024/01/13 08:21:07;;;;;;;31.63;21.50;;;2.40;99.90;;;;;;5092726;28;20181;-75
2024/01/13 08:23:33;;;;;;;30.77;22.40;;;2.40;99.90;;;;;;5091488;28;20173;-76
2024/01/13 08:25:59;;;;;;;35.67;22.60;;;2.40;99.90;;;;;;5091350;28;20692;-75
2024/01/13 08:28:25;;;;;;;31.80;22.10;;;2.40;99.90;;;;;;5092674;28;20174;-76
2024/01/13 08:30:50;;;;;;;33.73;23.73;;;2.50;99.90;;;;;;5092832;28;20683;-75
2024/01/13 08:33:16;;;;;;;40.77;24.00;;;2.40;99.90;;;;;;5091208;28;20186;-75
2024/01/13 08:35:41;;;;;;;37.90;24.10;;;2.50;99.90;;;;;;5092836;28;20162;-76
2024/01/13 08:38:07;;;;;;;35.63;24.67;;;2.40;99.90;;;;;;5092450;28;20178;-76
2024/01/13 08:40:33;;;;;;;37.30;24.33;;;2.40;99.90;;;;;;5092950;28;20167;-74
2024/01/13 08:43:02;;;;;;;43.17;24.63;;;2.40;99.90;;;;;;5091221;28;20181;-74
2024/01/13 08:45:29;;;;;;;35.63;23.07;;;2.40;99.90;;;;;;5091217;28;20202;-75
2024/01/13 08:47:59;;;;;;;36.00;22.13;;;2.40;99.90;;;;;;5091470;28;20194;-75
2024/01/13 08:50:25;;;;;;;35.80;22.93;;;2.40;99.90;;;;;;5092744;28;20601;-74
2024/01/13 08:52:54;;;;;;;30.63;22.20;;;2.40;99.90;;;;;;5091052;28;20237;-73
2024/01/13 08:55:20;;;;;;;34.97;23.23;;;2.50;99.90;;;;;;5092546;28;20162;-75
2024/01/13 08:57:46;;;;;;;33.07;22.77;;;2.50;99.90;;;;;;5091069;28;20695;-74
2024/01/13 09:00:12;;;;;;;30.93;21.90;;;2.50;99.90;;;;;;5090989;28;20181;-75
2024/01/13 09:02:39;;;;;;;30.73;22.23;;;2.50;99.90;;;;;;5091007;28;20197;-74
2024/01/13 09:05:05;;;;;;;31.67;22.97;;;2.50;99.90;;;;;;5092699;28;20162;-74
2024/01/13 09:07:31;;;;;;;34.47;23.23;;;2.50;99.90;;;;;;5092200;28;20196;-74
2024/01/13 09:09:57;;;;;;;31.63;22.80;;;2.50;99.90;;;;;;5092116;28;20204;-75
2024/01/13 09:12:22;;;;;;;35.13;23.30;;;2.50;99.90;;;;;;5092046;28;20178;-75
2024/01/13 09:14:48;;;;;;;28.93;22.63;;;2.50;99.90;;;;;;5092524;28;20166;-75
2024/01/13 09:17:13;;;;;;;30.63;20.77;;;2.60;99.90;;;;;;5090494;28;20239;-74
2024/01/13 09:19:39;;;;;;;32.07;21.87;;;2.60;99.90;;;;;;5091961;28;20167;-75
2024/01/13 09:22:04;;;;;;;36.20;22.43;;;2.60;99.90;;;;;;5092320;28;20170;-74
2024/01/13 09:24:30;;;;;;;32.17;22.43;;;2.60;99.90;;;;;;5092325;28;20166;-74
2024/01/13 09:26:56;;;;;;;28.97;21.97;;;2.60;99.90;;;;;;5090459;28;20673;-75
2024/01/13 09:29:21;;;;;;;31.57;21.30;;;2.60;99.90;;;;;;5091232;28;20177;-75
2024/01/13 09:31:48;;;;;;;27.30;19.93;;;2.60;99.90;;;;;;5095648;28;20206;-75
2024/01/13 09:34:15;;;;;;;29.40;21.03;;;2.60;99.90;;;;;;5094552;28;20177;-75
2024/01/13 09:36:42;;;;;;;30.40;19.63;;;2.60;99.90;;;;;;5094391;28;20217;-75
2024/01/13 09:39:11;;;;;;;29.63;20.43;;;2.60;99.90;;;;;;5096401;28;20166;-76
2024/01/13 09:41:37;;;;;;;30.97;20.50;;;2.70;99.90;;;;;;5096022;28;20196;-76
2024/01/13 09:44:11;;;;;;;29.57;20.10;;;2.70;99.90;;;;;;5095873;28;20173;-76
2024/01/13 09:46:37;;;;;;;34.63;20.27;;;2.70;99.90;;;;;;5096309;28;20202;-77
2024/01/13 09:49:08;;;;;;;33.10;20.60;;;2.70;99.90;;;;;;5097632;28;20171;-78
2024/01/13 09:51:34;;;;;;;26.67;19.63;;;2.70;99.90;;;;;;5096479;28;20202;-77
2024/01/13 09:54:10;;;;;;;27.70;19.77;;;2.70;99.90;;;;;;5098054;28;20236;-78
2024/01/13 09:56:43;;;;;;;27.93;19.27;;;2.80;99.90;;;;;;5096475;28;20312;-78
2024/01/13 09:59:08;;;;;;;31.23;19.50;;;2.80;99.90;;;;;;5097583;28;20568;-77
2024/01/13 10:01:35;;;;;;;29.13;19.93;;;2.80;99.90;;;;;;5095441;28;20170;-77
2024/01/13 10:04:01;;;;;;;25.33;19.30;;;2.80;99.90;;;;;;5096629;28;20186;-78
2024/01/13 10:06:28;;;;;;;25.27;18.93;;;2.80;99.90;;;;;;5094998;28;20194;-76
2024/01/13 10:08:53;;;;;;;26.07;17.80;;;2.80;99.90;;;;;;5094815;28;20182;-77
2024/01/13 10:11:19;;;;;;;26.73;19.63;;;2.80;99.90;;;;;;5097304;28;20194;-77
2024/01/13 10:14:00;;;;;;;23.90;17.70;;;2.80;99.90;;;;;;5096104;28;20175;-77
2024/01/13 10:16:29;;;;;;;22.40;17.23;;;2.80;99.90;;;;;;5092817;28;20186;-77
2024/01/13 10:18:58;;;;;;;23.73;17.33;;;2.80;99.90;;;;;;5094211;28;20170;-77
2024/01/13 10:21:23;;;;;;;22.87;17.00;;;2.80;99.90;;;;;;5095634;28;20261;-77
2024/01/13 10:23:50;;;;;;;24.53;16.60;;;2.80;99.90;;;;;;5093858;28;20254;-77
2024/01/13 10:26:16;;;;;;;22.70;16.93;;;2.80;99.90;;;;;;5095185;28;20200;-77
2024/01/13 10:28:42;;;;;;;25.07;17.47;;;2.80;99.90;;;;;;5094311;28;20277;-78
2024/01/13 10:31:08;;;;;;;25.03;16.27;;;2.80;99.90;;;;;;5096068;28;20216;-77
2024/01/13 10:33:34;;;;;;;22.50;16.10;;;2.80;99.90;;;;;;5094254;28;20194;-76
2024/01/13 10:35:59;;;;;;;25.10;15.70;;;2.80;99.90;;;;;;5095756;28;20641;-77
2024/01/13 10:38:25;;;;;;;22.93;15.77;;;2.80;99.90;;;;;;5095712;28;20285;-77
2024/01/13 10:40:51;;;;;;;21.83;16.30;;;2.80;99.90;;;;;;5094778;28;20174;-78
2024/01/13 10:43:18;;;;;;;25.37;16.00;;;2.80;99.90;;;;;;5096466;28;20526;-78
2024/01/13 10:45:49;;;;;;;20.97;15.83;;;2.90;99.90;;;;;;5099848;28;20178;-77
2024/01/13 10:48:30;;;;;;;19.47;14.73;;;2.80;99.90;;;;;;5099092;28;20197;-78
2024/01/13 10:50:56;;;;;;;22.13;15.97;;;2.90;99.90;;;;;;5098411;28;20248;-78
2024/01/13 10:53:26;;;;;;;23.23;15.83;;;2.90;99.90;;;;;;5096741;28;20170;-78
2024/01/13 10:55:53;;;;;;;20.70;14.83;;;2.90;99.90;;;;;;5097100;28;20177;-78
2024/01/13 10:58:20;;;;;;;19.80;14.43;;;2.90;99.90;;;;;;5096430;28;20227;-78
2024/01/13 11:00:46;;;;;;;19.93;14.73;;;2.80;99.90;;;;;;5096051;28;20196;-76
2024/01/13 11:03:15;;;;;;;19.90;15.27;;;2.90;99.90;;;;;;5097178;28;20174;-78
2024/01/13 11:05:41;;;;;;;20.77;14.67;;;2.90;99.90;;;;;;5097108;28;20280;-78
2024/01/13 11:08:07;;;;;;;18.93;13.23;;;2.90;99.90;;;;;;5096485;28;20225;-78
2024/01/13 11:10:37;;;;;;;19.00;14.17;;;3.00;99.90;;;;;;5095922;28;20753;-78
2024/01/13 11:13:17;;;;;;;20.20;13.57;;;2.90;99.90;;;;;;5095068;28;20173;-77
2024/01/13 11:16:04;;;;;;;19.67;14.10;;;2.90;99.90;;;;;;5096730;28;20174;-78
2024/01/13 11:18:44;;;;;;;15.50;12.20;;;2.90;99.90;;;;;;5093967;28;20659;-77
2024/01/13 11:21:11;;;;;;;19.70;13.00;;;2.90;99.90;;;;;;5095340;28;20580;-78
2024/01/13 11:23:57;;;;;;;17.10;12.33;;;2.90;99.90;;;;;;5095579;28;20246;-77
2024/01/13 11:26:36;;;;;;;17.97;12.27;;;2.90;99.90;;;;;;5095228;28;20181;-78
2024/01/13 11:29:14;;;;;;;18.23;13.13;;;2.90;99.90;;;;;;5093721;28;20178;-77
2024/01/13 11:31:41;;;;;;;15.53;11.30;;;2.90;99.90;;;;;;5097239;28;20182;-78
2024/01/13 11:34:08;;;;;;;18.57;12.20;;;2.90;99.90;;;;;;5095723;28;20206;-78
2024/01/13 11:36:43;;;;;;;16.40;11.57;;;2.90;99.90;;;;;;5093854;28;20242;-78
2024/01/13 11:39:09;;;;;;;16.87;12.13;;;3.00;99.90;;;;;;5095921;28;20611;-78
2024/01/13 11:41:46;;;;;;;16.80;11.83;;;2.90;99.90;;;;;;5096003;28;20198;-78
2024/01/13 11:44:24;;;;;;;18.00;12.37;;;2.90;99.90;;;;;;5096461;28;20166;-78
2024/01/13 11:47:07;;;;;;;17.47;13.13;;;3.00;99.90;;;;;;5096504;28;20210;-77
2024/01/13 11:49:46;;;;;;;21.07;13.17;;;3.00;99.90;;;;;;5095294;28;20170;-78
2024/01/13 11:52:15;;;;;;;16.90;12.53;;;3.00;99.90;;;;;;5095769;28;20184;-78
2024/01/13 11:54:43;;;;;;;19.10;13.57;;;3.00;99.90;;;;;;5094490;28;20181;-77
2024/01/13 11:57:10;;;;;;;17.17;12.73;;;3.00;99.90;;;;;;5094768;28;20199;-77
2024/01/13 11:59:37;;;;;;;20.23;13.07;;;3.00;99.90;;;;;;5093447;28;20548;-78
2024/01/13 12:02:02;;;;;;;18.43;13.23;;;3.00;99.90;;;;;;5095116;28;20231;-78
2024/01/13 12:04:30;;;;;;;18.63;13.47;;;3.00;99.90;;;;;;5093306;28;20174;-77
2024/01/13 12:06:56;;;;;;;19.97;13.13;;;3.00;99.90;;;;;;5093454;28;20250;-79
2024/01/13 12:09:23;;;;;;;17.37;13.87;;;3.00;99.90;;;;;;5095321;28;20177;-78
2024/01/13 12:12:00;;;;;;;19.90;14.30;;;3.00;99.90;;;;;;5093676;28;20292;-78
2024/01/13 12:14:30;;;;;;;19.47;13.97;;;3.00;99.90;;;;;;5094967;28;20264;-79
2024/01/13 12:16:57;;;;;;;19.00;14.17;;;3.00;99.90;;;;;;5094002;28;20190;-79
2024/01/13 12:19:25;;;;;;;21.00;14.67;;;3.00;99.90;;;;;;5094480;28;20171;-78
2024/01/13 12:21:51;;;;;;;20.63;15.10;;;3.00;99.90;;;;;;5093398;28;20185;-77
2024/01/13 12:24:27;;;;;;;20.57;14.73;;;3.00;99.90;;;;;;5093366;28;20170;-78
2024/01/13 12:26:54;;;;;;;20.30;15.50;;;3.00;99.90;;;;;;5095026;28;20194;-78
2024/01/13 12:29:21;;;;;;;24.10;15.80;;;3.00;99.90;;;;;;5095961;28;20250;-78
2024/01/13 12:31:47;;;;;;;20.03;14.83;;;3.00;99.90;;;;;;5094105;28;20604;-78
2024/01/13 12:34:15;;;;;;;22.43;15.77;;;3.00;99.90;;;;;;5093812;28;20196;-78